sensor_id;sensor_type;location;lat;lon;timestamp;P1;durP1;ratioP1;P2;durP2;ratioP2
76023;SDS011;64719;52.124;6.226;2023-04-25T00:01:31;13.93;;;3.72;;
76023;SDS011;64719;52.124;6.226;2023-04-25T00:03:58;9.23;;;2.70;;
76023;SDS011;64719;52.124;6.226;2023-04-25T00:06:27;11.95;;;3.30;;
76023;SDS011;64719;52.124;6.226;2023-04-25T00:11:21;12.43;;;2.45;;
76023;SDS011;64719;52.124;6.226;2023-04-25T00:13:48;11.00;;;2.70;;
76023;SDS011;64719;52.124;6.226;2023-04-25T00:16:15;14.38;;;2.75;;
76023;SDS011;64719;52.124;6.226;2023-04-25T00:18:42;14.10;;;3.28;;
76023;SDS011;64719;52.124;6.226;2023-04-25T00:21:11;11.55;;;3.45;;
76023;SDS011;64719;52.124;6.226;2023-04-25T00:23:39;10.25;;;2.90;;
76023;SDS011;64719;52.124;6.226;2023-04-25T00:26:05;13.48;;;3.35;;
76023;SDS011;64719;52.124;6.226;2023-04-25T00:28:32;10.25;;;3.00;;
76023;SDS011;64719;52.124;6.226;2023-04-25T00:30:59;16.73;;;3.58;;
76023;SDS011;64719;52.124;6.226;2023-04-25T00:33:25;15.23;;;3.60;;
76023;SDS011;64719;52.124;6.226;2023-04-25T00:35:52;11.75;;;3.78;;
76023;SDS011;64719;52.124;6.226;2023-04-25T00:38:18;10.27;;;3.42;;
76023;SDS011;64719;52.124;6.226;2023-04-25T00:40:46;8.38;;;2.78;;
76023;SDS011;64719;52.124;6.226;2023-04-25T00:43:13;12.95;;;3.17;;
76023;SDS011;64719;52.124;6.226;2023-04-25T00:45:39;14.15;;;3.38;;
76023;SDS011;64719;52.124;6.226;2023-04-25T00:48:06;8.95;;;3.30;;
76023;SDS011;64719;52.124;6.226;2023-04-25T00:50:33;13.27;;;2.80;;
76023;SDS011;64719;52.124;6.226;2023-04-25T00:53:00;7.53;;;2.38;;
76023;SDS011;64719;52.124;6.226;2023-04-25T00:55:27;10.95;;;3.47;;
76023;SDS011;64719;52.124;6.226;2023-04-25T00:57:55;13.48;;;3.70;;
76023;SDS011;64719;52.124;6.226;2023-04-25T01:00:21;9.18;;;3.47;;
76023;SDS011;64719;52.124;6.226;2023-04-25T01:02:48;11.00;;;3.20;;
76023;SDS011;64719;52.124;6.226;2023-04-25T01:05:16;12.10;;;3.50;;
76023;SDS011;64719;52.124;6.226;2023-04-25T01:07:43;12.18;;;3.30;;
76023;SDS011;64719;52.124;6.226;2023-04-25T01:10:10;11.00;;;3.85;;
76023;SDS011;64719;52.124;6.226;2023-04-25T01:12:37;8.00;;;3.13;;
76023;SDS011;64719;52.124;6.226;2023-04-25T01:15:06;9.35;;;3.05;;
76023;SDS011;64719;52.124;6.226;2023-04-25T01:17:33;12.70;;;3.78;;
76023;SDS011;64719;52.124;6.226;2023-04-25T01:20:01;11.43;;;3.70;;
76023;SDS011;64719;52.124;6.226;2023-04-25T01:22:31;7.57;;;2.97;;
76023;SDS011;64719;52.124;6.226;2023-04-25T01:24:58;12.80;;;3.70;;
76023;SDS011;64719;52.124;6.226;2023-04-25T01:27:25;6.88;;;2.97;;
76023;SDS011;64719;52.124;6.226;2023-04-25T01:29:52;12.55;;;3.30;;
76023;SDS011;64719;52.124;6.226;2023-04-25T01:32:20;12.80;;;3.28;;
76023;SDS011;64719;52.124;6.226;2023-04-25T01:34:48;9.55;;;3.70;;
76023;SDS011;64719;52.124;6.226;2023-04-25T01:37:16;10.27;;;3.30;;
76023;SDS011;64719;52.124;6.226;2023-04-25T01:39:44;11.18;;;3.13;;
76023;SDS011;64719;52.124;6.226;2023-04-25T01:42:11;12.70;;;3.58;;
76023;SDS011;64719;52.124;6.226;2023-04-25T01:44:38;11.85;;;3.50;;
76023;SDS011;64719;52.124;6.226;2023-04-25T01:47:05;13.43;;;4.25;;
76023;SDS011;64719;52.124;6.226;2023-04-25T01:49:31;18.85;;;5.13;;
76023;SDS011;64719;52.124;6.226;2023-04-25T01:51:58;14.95;;;3.97;;
76023;SDS011;64719;52.124;6.226;2023-04-25T01:54:24;9.32;;;3.60;;
76023;SDS011;64719;52.124;6.226;2023-04-25T01:56:52;13.75;;;3.90;;
76023;SDS011;64719;52.124;6.226;2023-04-25T01:59:19;14.23;;;3.75;;
76023;SDS011;64719;52.124;6.226;2023-04-25T02:01:46;13.73;;;3.67;;
76023;SDS011;64719;52.124;6.226;2023-04-25T02:04:13;16.60;;;4.18;;
76023;SDS011;64719;52.124;6.226;2023-04-25T02:06:39;13.00;;;4.53;;
76023;SDS011;64719;52.124;6.226;2023-04-25T02:09:06;15.02;;;4.88;;
76023;SDS011;64719;52.124;6.226;2023-04-25T02:11:33;17.08;;;3.97;;
76023;SDS011;64719;52.124;6.226;2023-04-25T02:14:00;14.02;;;4.05;;
76023;SDS011;64719;52.124;6.226;2023-04-25T02:16:27;17.52;;;4.13;;
76023;SDS011;64719;52.124;6.226;2023-04-25T02:18:55;15.48;;;3.72;;
76023;SDS011;64719;52.124;6.226;2023-04-25T02:21:22;12.93;;;3.88;;
76023;SDS011;64719;52.124;6.226;2023-04-25T02:23:48;18.08;;;3.97;;
76023;SDS011;64719;52.124;6.226;2023-04-25T02:26:17;11.52;;;4.22;;
76023;SDS011;64719;52.124;6.226;2023-04-25T02:28:43;10.43;;;3.33;;
76023;SDS011;64719;52.124;6.226;2023-04-25T02:31:11;15.43;;;3.80;;
76023;SDS011;64719;52.124;6.226;2023-04-25T02:33:37;11.77;;;3.65;;
76023;SDS011;64719;52.124;6.226;2023-04-25T02:36:04;11.98;;;3.80;;
76023;SDS011;64719;52.124;6.226;2023-04-25T02:38:31;10.40;;;3.40;;
76023;SDS011;64719;52.124;6.226;2023-04-25T02:40:58;12.45;;;3.80;;
76023;SDS011;64719;52.124;6.226;2023-04-25T02:43:24;12.90;;;3.55;;
76023;SDS011;64719;52.124;6.226;2023-04-25T02:45:51;11.43;;;4.07;;
76023;SDS011;64719;52.124;6.226;2023-04-25T02:48:19;14.60;;;4.38;;
76023;SDS011;64719;52.124;6.226;2023-04-25T02:50:45;15.38;;;4.43;;
76023;SDS011;64719;52.124;6.226;2023-04-25T02:53:12;10.38;;;3.53;;
76023;SDS011;64719;52.124;6.226;2023-04-25T02:55:38;23.13;;;4.40;;
76023;SDS011;64719;52.124;6.226;2023-04-25T02:58:05;15.68;;;4.00;;
76023;SDS011;64719;52.124;6.226;2023-04-25T03:00:31;18.85;;;4.53;;
76023;SDS011;64719;52.124;6.226;2023-04-25T03:02:58;8.07;;;3.38;;
76023;SDS011;64719;52.124;6.226;2023-04-25T03:05:26;10.65;;;3.60;;
76023;SDS011;64719;52.124;6.226;2023-04-25T03:07:52;12.07;;;3.53;;
76023;SDS011;64719;52.124;6.226;2023-04-25T03:10:19;17.23;;;4.40;;
76023;SDS011;64719;52.124;6.226;2023-04-25T03:12:45;18.95;;;4.25;;
76023;SDS011;64719;52.124;6.226;2023-04-25T03:15:12;14.88;;;4.68;;
76023;SDS011;64719;52.124;6.226;2023-04-25T03:17:38;12.43;;;3.95;;
76023;SDS011;64719;52.124;6.226;2023-04-25T03:20:06;10.10;;;3.90;;
76023;SDS011;64719;52.124;6.226;2023-04-25T03:22:35;10.55;;;3.22;;
76023;SDS011;64719;52.124;6.226;2023-04-25T03:25:01;10.48;;;3.45;;
76023;SDS011;64719;52.124;6.226;2023-04-25T03:27:28;14.00;;;4.03;;
76023;SDS011;64719;52.124;6.226;2023-04-25T03:29:58;12.95;;;3.80;;
76023;SDS011;64719;52.124;6.226;2023-04-25T03:32:24;18.20;;;3.70;;
76023;SDS011;64719;52.124;6.226;2023-04-25T03:34:51;14.98;;;4.03;;
76023;SDS011;64719;52.124;6.226;2023-04-25T03:37:17;13.45;;;3.25;;
76023;SDS011;64719;52.124;6.226;2023-04-25T03:39:45;13.63;;;3.92;;
76023;SDS011;64719;52.124;6.226;2023-04-25T03:42:11;13.98;;;3.83;;
76023;SDS011;64719;52.124;6.226;2023-04-25T03:44:38;14.32;;;3.95;;
76023;SDS011;64719;52.124;6.226;2023-04-25T03:47:04;15.57;;;3.63;;
76023;SDS011;64719;52.124;6.226;2023-04-25T03:49:32;19.90;;;4.20;;
76023;SDS011;64719;52.124;6.226;2023-04-25T03:51:58;16.25;;;4.55;;
76023;SDS011;64719;52.124;6.226;2023-04-25T03:54:25;15.35;;;4.00;;
76023;SDS011;64719;52.124;6.226;2023-04-25T03:56:53;17.95;;;4.40;;
76023;SDS011;64719;52.124;6.226;2023-04-25T03:59:19;11.60;;;3.78;;
76023;SDS011;64719;52.124;6.226;2023-04-25T04:01:46;13.65;;;3.47;;
76023;SDS011;64719;52.124;6.226;2023-04-25T04:04:12;8.30;;;3.80;;
76023;SDS011;64719;52.124;6.226;2023-04-25T04:06:39;16.15;;;3.95;;
76023;SDS011;64719;52.124;6.226;2023-04-25T04:09:06;15.75;;;3.40;;
76023;SDS011;64719;52.124;6.226;2023-04-25T04:11:35;13.60;;;3.58;;
76023;SDS011;64719;52.124;6.226;2023-04-25T04:14:04;14.00;;;3.35;;
76023;SDS011;64719;52.124;6.226;2023-04-25T04:16:31;11.13;;;3.63;;
76023;SDS011;64719;52.124;6.226;2023-04-25T04:18:58;11.20;;;3.30;;
76023;SDS011;64719;52.124;6.226;2023-04-25T04:21:24;9.88;;;2.95;;
76023;SDS011;64719;52.124;6.226;2023-04-25T04:23:52;5.28;;;2.47;;
76023;SDS011;64719;52.124;6.226;2023-04-25T04:26:19;6.57;;;2.55;;
76023;SDS011;64719;52.124;6.226;2023-04-25T04:28:48;7.65;;;2.67;;
76023;SDS011;64719;52.124;6.226;2023-04-25T04:31:16;6.10;;;1.90;;
76023;SDS011;64719;52.124;6.226;2023-04-25T04:33:44;9.25;;;3.22;;
76023;SDS011;64719;52.124;6.226;2023-04-25T04:36:11;9.07;;;2.65;;
76023;SDS011;64719;52.124;6.226;2023-04-25T04:38:38;6.80;;;2.25;;
76023;SDS011;64719;52.124;6.226;2023-04-25T04:41:05;6.30;;;2.05;;
76023;SDS011;64719;52.124;6.226;2023-04-25T04:43:31;8.65;;;2.60;;
76023;SDS011;64719;52.124;6.226;2023-04-25T04:45:58;7.18;;;2.05;;
76023;SDS011;64719;52.124;6.226;2023-04-25T04:48:28;7.95;;;2.50;;
76023;SDS011;64719;52.124;6.226;2023-04-25T04:50:57;6.05;;;2.10;;
76023;SDS011;64719;52.124;6.226;2023-04-25T04:53:24;6.57;;;2.42;;
76023;SDS011;64719;52.124;6.226;2023-04-25T04:55:50;8.32;;;2.80;;
76023;SDS011;64719;52.124;6.226;2023-04-25T04:58:17;13.35;;;3.35;;
76023;SDS011;64719;52.124;6.226;2023-04-25T05:00:44;9.95;;;3.70;;
76023;SDS011;64719;52.124;6.226;2023-04-25T05:03:11;11.38;;;2.90;;
76023;SDS011;64719;52.124;6.226;2023-04-25T05:05:39;13.85;;;3.58;;
76023;SDS011;64719;52.124;6.226;2023-04-25T05:08:06;20.33;;;3.58;;
76023;SDS011;64719;52.124;6.226;2023-04-25T05:10:32;12.55;;;3.58;;
76023;SDS011;64719;52.124;6.226;2023-04-25T05:12:59;9.25;;;3.50;;
76023;SDS011;64719;52.124;6.226;2023-04-25T05:15:25;13.20;;;3.88;;
76023;SDS011;64719;52.124;6.226;2023-04-25T05:17:52;12.80;;;3.70;;
76023;SDS011;64719;52.124;6.226;2023-04-25T05:20:18;12.88;;;3.70;;
76023;SDS011;64719;52.124;6.226;2023-04-25T05:22:46;11.15;;;3.63;;
76023;SDS011;64719;52.124;6.226;2023-04-25T05:25:13;9.00;;;3.22;;
76023;SDS011;64719;52.124;6.226;2023-04-25T05:27:39;14.55;;;3.92;;
76023;SDS011;64719;52.124;6.226;2023-04-25T05:30:06;7.97;;;3.00;;
76023;SDS011;64719;52.124;6.226;2023-04-25T05:32:34;7.68;;;3.88;;
76023;SDS011;64719;52.124;6.226;2023-04-25T05:35:00;8.05;;;3.35;;
76023;SDS011;64719;52.124;6.226;2023-04-25T05:37:27;8.32;;;3.13;;
76023;SDS011;64719;52.124;6.226;2023-04-25T05:39:56;11.88;;;3.00;;
76023;SDS011;64719;52.124;6.226;2023-04-25T05:42:23;9.68;;;2.22;;
76023;SDS011;64719;52.124;6.226;2023-04-25T05:44:50;7.43;;;2.65;;
76023;SDS011;64719;52.124;6.226;2023-04-25T05:47:16;7.45;;;2.13;;
76023;SDS011;64719;52.124;6.226;2023-04-25T05:49:43;3.55;;;1.70;;
76023;SDS011;64719;52.124;6.226;2023-04-25T05:52:09;6.85;;;1.92;;
76023;SDS011;64719;52.124;6.226;2023-04-25T05:54:36;3.33;;;1.90;;
76023;SDS011;64719;52.124;6.226;2023-04-25T05:57:04;5.80;;;2.28;;
76023;SDS011;64719;52.124;6.226;2023-04-25T05:59:30;7.40;;;1.70;;
76023;SDS011;64719;52.124;6.226;2023-04-25T06:01:57;6.25;;;2.20;;
76023;SDS011;64719;52.124;6.226;2023-04-25T06:04:23;4.47;;;1.88;;
76023;SDS011;64719;52.124;6.226;2023-04-25T06:06:50;6.18;;;1.73;;
76023;SDS011;64719;52.124;6.226;2023-04-25T06:09:16;5.70;;;2.15;;
76023;SDS011;64719;52.124;6.226;2023-04-25T06:11:42;5.78;;;1.67;;
76023;SDS011;64719;52.124;6.226;2023-04-25T06:14:11;8.75;;;1.60;;
76023;SDS011;64719;52.124;6.226;2023-04-25T06:16:37;7.68;;;2.08;;
76023;SDS011;64719;52.124;6.226;2023-04-25T06:19:04;6.00;;;2.42;;
76023;SDS011;64719;52.124;6.226;2023-04-25T06:21:30;6.63;;;1.92;;
76023;SDS011;64719;52.124;6.226;2023-04-25T06:23:57;6.22;;;2.00;;
76023;SDS011;64719;52.124;6.226;2023-04-25T06:26:24;6.88;;;1.60;;
76023;SDS011;64719;52.124;6.226;2023-04-25T06:28:50;6.50;;;1.92;;
76023;SDS011;64719;52.124;6.226;2023-04-25T06:31:18;5.10;;;2.03;;
76023;SDS011;64719;52.124;6.226;2023-04-25T06:33:45;6.95;;;1.50;;
76023;SDS011;64719;52.124;6.226;2023-04-25T06:36:13;7.80;;;2.17;;
76023;SDS011;64719;52.124;6.226;2023-04-25T06:38:39;7.30;;;1.90;;
76023;SDS011;64719;52.124;6.226;2023-04-25T06:41:06;2.13;;;1.00;;
76023;SDS011;64719;52.124;6.226;2023-04-25T06:43:33;2.45;;;1.10;;
76023;SDS011;64719;52.124;6.226;2023-04-25T06:45:59;4.88;;;1.17;;
76023;SDS011;64719;52.124;6.226;2023-04-25T06:48:27;6.57;;;1.50;;
76023;SDS011;64719;52.124;6.226;2023-04-25T06:50:54;6.38;;;1.50;;
76023;SDS011;64719;52.124;6.226;2023-04-25T06:53:21;6.53;;;1.88;;
76023;SDS011;64719;52.124;6.226;2023-04-25T06:55:48;6.32;;;1.98;;
76023;SDS011;64719;52.124;6.226;2023-04-25T06:58:14;3.80;;;1.30;;
76023;SDS011;64719;52.124;6.226;2023-04-25T07:00:41;6.43;;;1.42;;
76023;SDS011;64719;52.124;6.226;2023-04-25T07:03:07;6.20;;;1.42;;
76023;SDS011;64719;52.124;6.226;2023-04-25T07:05:35;7.15;;;1.90;;
76023;SDS011;64719;52.124;6.226;2023-04-25T07:08:02;5.82;;;1.50;;
76023;SDS011;64719;52.124;6.226;2023-04-25T07:10:29;6.70;;;1.80;;
76023;SDS011;64719;52.124;6.226;2023-04-25T07:12:56;7.40;;;2.00;;
76023;SDS011;64719;52.124;6.226;2023-04-25T07:15:22;8.93;;;2.00;;
76023;SDS011;64719;52.124;6.226;2023-04-25T07:17:49;5.68;;;2.05;;
76023;SDS011;64719;52.124;6.226;2023-04-25T07:20:15;4.32;;;1.40;;
76023;SDS011;64719;52.124;6.226;2023-04-25T07:22:43;9.63;;;1.30;;
76023;SDS011;64719;52.124;6.226;2023-04-25T07:25:10;7.22;;;1.60;;
76023;SDS011;64719;52.124;6.226;2023-04-25T07:27:36;6.78;;;1.70;;
76023;SDS011;64719;52.124;6.226;2023-04-25T07:30:03;4.97;;;1.35;;
76023;SDS011;64719;52.124;6.226;2023-04-25T07:32:30;6.30;;;1.30;;
76023;SDS011;64719;52.124;6.226;2023-04-25T07:34:57;5.43;;;1.52;;
76023;SDS011;64719;52.124;6.226;2023-04-25T07:37:23;4.47;;;1.55;;
76023;SDS011;64719;52.124;6.226;2023-04-25T07:39:51;7.40;;;1.80;;
76023;SDS011;64719;52.124;6.226;2023-04-25T07:42:18;6.65;;;1.80;;
76023;SDS011;64719;52.124;6.226;2023-04-25T07:44:44;8.98;;;1.85;;
76023;SDS011;64719;52.124;6.226;2023-04-25T07:47:11;4.68;;;1.60;;
76023;SDS011;64719;52.124;6.226;2023-04-25T07:49:38;6.70;;;1.73;;
76023;SDS011;64719;52.124;6.226;2023-04-25T07:52:05;8.15;;;1.95;;
76023;SDS011;64719;52.124;6.226;2023-04-25T07:54:32;5.10;;;1.40;;
76023;SDS011;64719;52.124;6.226;2023-04-25T07:57:00;7.25;;;1.83;;
76023;SDS011;64719;52.124;6.226;2023-04-25T07:59:27;4.32;;;1.33;;
76023;SDS011;64719;52.124;6.226;2023-04-25T08:01:53;8.05;;;1.67;;
76023;SDS011;64719;52.124;6.226;2023-04-25T08:04:22;7.20;;;1.80;;
76023;SDS011;64719;52.124;6.226;2023-04-25T08:06:48;4.90;;;1.45;;
76023;SDS011;64719;52.124;6.226;2023-04-25T08:09:15;6.80;;;1.90;;
76023;SDS011;64719;52.124;6.226;2023-04-25T08:11:42;6.15;;;1.70;;
76023;SDS011;64719;52.124;6.226;2023-04-25T08:14:11;5.80;;;1.50;;
76023;SDS011;64719;52.124;6.226;2023-04-25T08:16:37;5.25;;;1.20;;
76023;SDS011;64719;52.124;6.226;2023-04-25T08:19:04;4.82;;;1.60;;
76023;SDS011;64719;52.124;6.226;2023-04-25T08:21:31;4.32;;;1.30;;
76023;SDS011;64719;52.124;6.226;2023-04-25T08:23:57;3.78;;;1.15;;
76023;SDS011;64719;52.124;6.226;2023-04-25T08:26:25;2.60;;;0.90;;
76023;SDS011;64719;52.124;6.226;2023-04-25T08:28:51;2.22;;;0.73;;
76023;SDS011;64719;52.124;6.226;2023-04-25T08:31:19;3.65;;;0.90;;
76023;SDS011;64719;52.124;6.226;2023-04-25T08:33:46;4.35;;;0.90;;
76023;SDS011;64719;52.124;6.226;2023-04-25T08:36:12;5.80;;;1.52;;
76023;SDS011;64719;52.124;6.226;2023-04-25T08:38:39;1.77;;;0.80;;
76023;SDS011;64719;52.124;6.226;2023-04-25T08:41:06;4.38;;;1.10;;
76023;SDS011;64719;52.124;6.226;2023-04-25T08:43:33;3.78;;;1.08;;
76023;SDS011;64719;52.124;6.226;2023-04-25T08:46:01;3.00;;;1.00;;
76023;SDS011;64719;52.124;6.226;2023-04-25T08:48:30;2.65;;;1.00;;
76023;SDS011;64719;52.124;6.226;2023-04-25T08:50:58;2.40;;;1.00;;
76023;SDS011;64719;52.124;6.226;2023-04-25T08:53:29;4.82;;;0.95;;
76023;SDS011;64719;52.124;6.226;2023-04-25T08:58:23;3.20;;;1.00;;
76023;SDS011;64719;52.124;6.226;2023-04-25T09:00:50;5.07;;;1.13;;
76023;SDS011;64719;52.124;6.226;2023-04-25T09:03:18;5.38;;;1.25;;
76023;SDS011;64719;52.124;6.226;2023-04-25T09:05:46;2.10;;;0.80;;
76023;SDS011;64719;52.124;6.226;2023-04-25T09:08:12;3.92;;;0.90;;
76023;SDS011;64719;52.124;6.226;2023-04-25T09:10:39;5.45;;;1.20;;
76023;SDS011;64719;52.124;6.226;2023-04-25T09:13:06;5.35;;;1.30;;
76023;SDS011;64719;52.124;6.226;2023-04-25T09:15:46;4.82;;;1.10;;
76023;SDS011;64719;52.124;6.226;2023-04-25T09:18:14;6.15;;;1.75;;
76023;SDS011;64719;52.124;6.226;2023-04-25T09:20:50;4.18;;;1.20;;
76023;SDS011;64719;52.124;6.226;2023-04-25T09:23:18;5.88;;;1.45;;
76023;SDS011;64719;52.124;6.226;2023-04-25T09:25:46;5.63;;;1.35;;
76023;SDS011;64719;52.124;6.226;2023-04-25T09:28:14;4.85;;;1.40;;
76023;SDS011;64719;52.124;6.226;2023-04-25T09:30:41;4.28;;;1.20;;
76023;SDS011;64719;52.124;6.226;2023-04-25T09:33:08;6.53;;;1.38;;
76023;SDS011;64719;52.124;6.226;2023-04-25T09:35:36;5.40;;;1.52;;
76023;SDS011;64719;52.124;6.226;2023-04-25T09:38:08;3.80;;;1.10;;
76023;SDS011;64719;52.124;6.226;2023-04-25T09:40:40;2.47;;;0.90;;
76023;SDS011;64719;52.124;6.226;2023-04-25T09:43:10;3.63;;;1.00;;
76023;SDS011;64719;52.124;6.226;2023-04-25T09:45:44;1.17;;;0.60;;
76023;SDS011;64719;52.124;6.226;2023-04-25T09:48:12;2.92;;;0.80;;
76023;SDS011;64719;52.124;6.226;2023-04-25T09:50:43;2.67;;;1.08;;
76023;SDS011;64719;52.124;6.226;2023-04-25T09:53:11;1.65;;;0.60;;
76023;SDS011;64719;52.124;6.226;2023-04-25T09:55:38;3.88;;;0.60;;
76023;SDS011;64719;52.124;6.226;2023-04-25T09:58:05;3.60;;;0.68;;
76023;SDS011;64719;52.124;6.226;2023-04-25T10:00:32;1.67;;;0.70;;
76023;SDS011;64719;52.124;6.226;2023-04-25T10:03:00;5.22;;;0.90;;
76023;SDS011;64719;52.124;6.226;2023-04-25T10:05:29;3.03;;;0.98;;
76023;SDS011;64719;52.124;6.226;2023-04-25T10:07:58;2.85;;;0.80;;
76023;SDS011;64719;52.124;6.226;2023-04-25T10:10:30;4.65;;;0.80;;
76023;SDS011;64719;52.124;6.226;2023-04-25T10:13:01;6.20;;;1.42;;
76023;SDS011;64719;52.124;6.226;2023-04-25T10:15:30;4.05;;;1.10;;
76023;SDS011;64719;52.124;6.226;2023-04-25T10:17:57;8.02;;;1.40;;
76023;SDS011;64719;52.124;6.226;2023-04-25T10:20:24;3.58;;;1.45;;
76023;SDS011;64719;52.124;6.226;2023-04-25T10:22:51;3.35;;;1.20;;
76023;SDS011;64719;52.124;6.226;2023-04-25T10:25:22;5.20;;;1.30;;
76023;SDS011;64719;52.124;6.226;2023-04-25T10:30:17;4.95;;;1.20;;
76023;SDS011;64719;52.124;6.226;2023-04-25T10:32:44;3.70;;;1.60;;
76023;SDS011;64719;52.124;6.226;2023-04-25T10:35:12;3.97;;;1.25;;
76023;SDS011;64719;52.124;6.226;2023-04-25T10:40:23;4.13;;;1.20;;
76023;SDS011;64719;52.124;6.226;2023-04-25T10:42:52;4.95;;;1.08;;
76023;SDS011;64719;52.124;6.226;2023-04-25T10:45:19;4.43;;;1.13;;
76023;SDS011;64719;52.124;6.226;2023-04-25T10:47:46;3.65;;;1.25;;
76023;SDS011;64719;52.124;6.226;2023-04-25T10:50:13;7.03;;;1.13;;
76023;SDS011;64719;52.124;6.226;2023-04-25T10:52:41;3.65;;;1.20;;
76023;SDS011;64719;52.124;6.226;2023-04-25T10:55:08;8.55;;;1.63;;
76023;SDS011;64719;52.124;6.226;2023-04-25T10:57:38;8.23;;;1.45;;
76023;SDS011;64719;52.124;6.226;2023-04-25T11:00:09;5.63;;;1.30;;
76023;SDS011;64719;52.124;6.226;2023-04-25T11:02:40;3.95;;;1.08;;
76023;SDS011;64719;52.124;6.226;2023-04-25T11:05:08;6.53;;;1.65;;
76023;SDS011;64719;52.124;6.226;2023-04-25T11:07:37;4.93;;;1.15;;
76023;SDS011;64719;52.124;6.226;2023-04-25T11:10:08;2.25;;;1.00;;
76023;SDS011;64719;52.124;6.226;2023-04-25T11:12:35;5.65;;;1.20;;
76023;SDS011;64719;52.124;6.226;2023-04-25T11:15:02;4.10;;;1.00;;
76023;SDS011;64719;52.124;6.226;2023-04-25T11:17:32;4.90;;;1.00;;
76023;SDS011;64719;52.124;6.226;2023-04-25T11:22:26;4.95;;;1.17;;
76023;SDS011;64719;52.124;6.226;2023-04-25T11:27:19;4.68;;;1.30;;
76023;SDS011;64719;52.124;6.226;2023-04-25T11:29:49;4.65;;;1.33;;
76023;SDS011;64719;52.124;6.226;2023-04-25T11:32:16;4.15;;;0.80;;
76023;SDS011;64719;52.124;6.226;2023-04-25T11:34:45;4.85;;;1.35;;
76023;SDS011;64719;52.124;6.226;2023-04-25T11:37:12;5.40;;;1.55;;
76023;SDS011;64719;52.124;6.226;2023-04-25T11:39:42;3.72;;;1.13;;
76023;SDS011;64719;52.124;6.226;2023-04-25T11:42:11;4.43;;;1.30;;
76023;SDS011;64719;52.124;6.226;2023-04-25T11:44:38;3.95;;;1.00;;
76023;SDS011;64719;52.124;6.226;2023-04-25T11:47:05;7.22;;;1.70;;
76023;SDS011;64719;52.124;6.226;2023-04-25T11:49:32;5.85;;;1.45;;
76023;SDS011;64719;52.124;6.226;2023-04-25T11:52:01;3.67;;;1.00;;
76023;SDS011;64719;52.124;6.226;2023-04-25T11:54:28;3.15;;;0.90;;
76023;SDS011;64719;52.124;6.226;2023-04-25T11:56:54;4.10;;;0.98;;
76023;SDS011;64719;52.124;6.226;2023-04-25T11:59:22;4.03;;;1.02;;
76023;SDS011;64719;52.124;6.226;2023-04-25T12:01:50;4.10;;;0.95;;
76023;SDS011;64719;52.124;6.226;2023-04-25T12:04:17;5.28;;;1.10;;
76023;SDS011;64719;52.124;6.226;2023-04-25T12:06:45;2.88;;;1.00;;
76023;SDS011;64719;52.124;6.226;2023-04-25T12:09:15;4.03;;;1.10;;
76023;SDS011;64719;52.124;6.226;2023-04-25T12:11:44;3.72;;;1.10;;
76023;SDS011;64719;52.124;6.226;2023-04-25T12:14:11;5.80;;;1.40;;
76023;SDS011;64719;52.124;6.226;2023-04-25T12:16:41;4.55;;;1.20;;
76023;SDS011;64719;52.124;6.226;2023-04-25T12:19:09;3.83;;;1.13;;
76023;SDS011;64719;52.124;6.226;2023-04-25T12:21:36;3.22;;;1.02;;
76023;SDS011;64719;52.124;6.226;2023-04-25T12:24:09;4.68;;;1.23;;
76023;SDS011;64719;52.124;6.226;2023-04-25T12:26:51;5.38;;;1.10;;
76023;SDS011;64719;52.124;6.226;2023-04-25T12:29:19;3.60;;;1.27;;
76023;SDS011;64719;52.124;6.226;2023-04-25T12:31:47;5.00;;;1.35;;
76023;SDS011;64719;52.124;6.226;2023-04-25T12:34:14;3.95;;;0.90;;
76023;SDS011;64719;52.124;6.226;2023-04-25T12:36:41;5.55;;;1.20;;
76023;SDS011;64719;52.124;6.226;2023-04-25T12:39:07;4.03;;;1.02;;
76023;SDS011;64719;52.124;6.226;2023-04-25T12:41:35;3.03;;;1.00;;
76023;SDS011;64719;52.124;6.226;2023-04-25T12:44:03;3.35;;;0.90;;
76023;SDS011;64719;52.124;6.226;2023-04-25T12:46:30;2.88;;;1.02;;
76023;SDS011;64719;52.124;6.226;2023-04-25T12:48:56;5.15;;;1.35;;
76023;SDS011;64719;52.124;6.226;2023-04-25T12:51:23;5.75;;;1.20;;
76023;SDS011;64719;52.124;6.226;2023-04-25T12:53:51;5.07;;;1.52;;
76023;SDS011;64719;52.124;6.226;2023-04-25T12:56:18;2.50;;;0.90;;
76023;SDS011;64719;52.124;6.226;2023-04-25T12:58:44;2.42;;;0.82;;
76023;SDS011;64719;52.124;6.226;2023-04-25T13:01:12;3.47;;;1.25;;
76023;SDS011;64719;52.124;6.226;2023-04-25T13:03:39;5.88;;;1.23;;
76023;SDS011;64719;52.124;6.226;2023-04-25T13:06:06;4.43;;;1.23;;
76023;SDS011;64719;52.124;6.226;2023-04-25T13:08:33;4.10;;;1.02;;
76023;SDS011;64719;52.124;6.226;2023-04-25T13:11:00;3.50;;;0.90;;
76023;SDS011;64719;52.124;6.226;2023-04-25T13:13:26;3.00;;;1.10;;
76023;SDS011;64719;52.124;6.226;2023-04-25T13:15:53;3.15;;;0.88;;
76023;SDS011;64719;52.124;6.226;2023-04-25T13:18:21;5.13;;;0.88;;
76023;SDS011;64719;52.124;6.226;2023-04-25T13:20:51;2.85;;;0.90;;
76023;SDS011;64719;52.124;6.226;2023-04-25T13:23:17;2.92;;;0.93;;
76023;SDS011;64719;52.124;6.226;2023-04-25T13:25:44;3.25;;;1.10;;
76023;SDS011;64719;52.124;6.226;2023-04-25T13:28:10;3.47;;;1.25;;
76023;SDS011;64719;52.124;6.226;2023-04-25T13:30:37;5.38;;;1.20;;
76023;SDS011;64719;52.124;6.226;2023-04-25T13:33:04;4.95;;;1.13;;
76023;SDS011;64719;52.124;6.226;2023-04-25T13:35:33;5.70;;;1.20;;
76023;SDS011;64719;52.124;6.226;2023-04-25T13:38:01;3.30;;;0.95;;
76023;SDS011;64719;52.124;6.226;2023-04-25T13:40:28;5.45;;;1.23;;
76023;SDS011;64719;52.124;6.226;2023-04-25T13:42:54;3.92;;;1.40;;
76023;SDS011;64719;52.124;6.226;2023-04-25T13:45:21;3.17;;;0.90;;
76023;SDS011;64719;52.124;6.226;2023-04-25T13:47:48;9.35;;;1.30;;
76023;SDS011;64719;52.124;6.226;2023-04-25T13:50:15;4.43;;;0.90;;
76023;SDS011;64719;52.124;6.226;2023-04-25T13:52:43;5.18;;;1.30;;
76023;SDS011;64719;52.124;6.226;2023-04-25T13:55:10;5.03;;;1.30;;
76023;SDS011;64719;52.124;6.226;2023-04-25T13:57:36;3.90;;;1.00;;
76023;SDS011;64719;52.124;6.226;2023-04-25T14:00:04;4.20;;;0.95;;
76023;SDS011;64719;52.124;6.226;2023-04-25T14:02:34;4.30;;;0.90;;
76023;SDS011;64719;52.124;6.226;2023-04-25T14:05:01;4.20;;;0.90;;
76023;SDS011;64719;52.124;6.226;2023-04-25T14:07:28;4.13;;;0.90;;
76023;SDS011;64719;52.124;6.226;2023-04-25T14:09:56;4.57;;;1.10;;
76023;SDS011;64719;52.124;6.226;2023-04-25T14:12:23;3.67;;;1.00;;
76023;SDS011;64719;52.124;6.226;2023-04-25T14:14:50;4.80;;;1.00;;
76023;SDS011;64719;52.124;6.226;2023-04-25T14:17:17;5.28;;;1.45;;
76023;SDS011;64719;52.124;6.226;2023-04-25T14:19:44;2.70;;;0.80;;
76023;SDS011;64719;52.124;6.226;2023-04-25T14:22:10;4.03;;;0.90;;
76023;SDS011;64719;52.124;6.226;2023-04-25T14:24:37;2.08;;;0.93;;
76023;SDS011;64719;52.124;6.226;2023-04-25T14:27:05;5.00;;;1.10;;
76023;SDS011;64719;52.124;6.226;2023-04-25T14:29:32;4.78;;;1.25;;
76023;SDS011;64719;52.124;6.226;2023-04-25T14:31:58;5.68;;;0.93;;
76023;SDS011;64719;52.124;6.226;2023-04-25T14:34:25;2.70;;;0.90;;
76023;SDS011;64719;52.124;6.226;2023-04-25T14:36:52;5.35;;;1.08;;
76023;SDS011;64719;52.124;6.226;2023-04-25T14:39:18;3.92;;;1.05;;
76023;SDS011;64719;52.124;6.226;2023-04-25T14:41:45;3.33;;;1.05;;
76023;SDS011;64719;52.124;6.226;2023-04-25T14:44:13;4.75;;;1.10;;
76023;SDS011;64719;52.124;6.226;2023-04-25T14:46:40;3.20;;;0.90;;
76023;SDS011;64719;52.124;6.226;2023-04-25T14:49:06;4.00;;;1.20;;
76023;SDS011;64719;52.124;6.226;2023-04-25T14:51:33;3.55;;;0.98;;
76023;SDS011;64719;52.124;6.226;2023-04-25T14:53:59;4.03;;;0.93;;
76023;SDS011;64719;52.124;6.226;2023-04-25T14:56:26;4.25;;;1.10;;
76023;SDS011;64719;52.124;6.226;2023-04-25T14:58:52;7.93;;;1.15;;